createdAt,value
2018-07-10T00:00:02.167Z,2.80
2018-07-10T00:01:02.248Z,2.80
2018-07-10T00:02:02.210Z,2.70
2018-07-10T00:03:02.445Z,2.80
2018-07-10T00:04:02.418Z,2.90
2018-07-10T00:05:02.293Z,2.30
2018-07-10T00:06:02.243Z,2.70
2018-07-10T00:07:02.257Z,2.30
2018-07-10T00:08:02.224Z,2.40
2018-07-10T00:09:02.176Z,3.00
2018-07-10T00:10:02.410Z,2.40
2018-07-10T00:11:02.181Z,2.40
2018-07-10T00:12:02.137Z,2.60
2018-07-10T00:13:02.284Z,2.40
2018-07-10T00:14:02.194Z,2.40
2018-07-10T00:15:02.173Z,2.40
2018-07-10T00:16:02.151Z,2.40
2018-07-10T00:17:02.426Z,2.30
2018-07-10T00:18:02.198Z,2.40
2018-07-10T00:19:02.158Z,2.30
2018-07-10T00:20:01.762Z,2.00
2018-07-10T00:21:02.274Z,1.90
2018-07-10T00:22:02.179Z,2.50
2018-07-10T00:23:02.443Z,1.90
2018-07-10T00:24:02.426Z,2.40
2018-07-10T00:25:02.155Z,2.30
2018-07-10T00:26:02.446Z,2.00
2018-07-10T00:27:02.239Z,2.30
2018-07-10T00:28:02.238Z,1.90
2018-07-10T00:29:02.249Z,1.80
2018-07-10T00:30:02.251Z,2.20
2018-07-10T00:31:02.264Z,2.10
2018-07-10T00:32:02.265Z,2.00
2018-07-10T00:33:02.263Z,1.90
2018-07-10T00:34:02.244Z,1.70
2018-07-10T00:35:02.152Z,2.40
2018-07-10T00:36:02.277Z,2.30
2018-07-10T00:37:02.248Z,2.30
2018-07-10T00:38:01.791Z,2.10
2018-07-10T00:39:02.216Z,2.20
2018-07-10T00:40:02.217Z,1.90
2018-07-10T00:41:01.769Z,2.20
2018-07-10T00:42:02.235Z,2.10
2018-07-10T00:43:02.417Z,2.20
2018-07-10T00:44:02.416Z,2.50
2018-07-10T00:45:02.293Z,2.20
2018-07-10T00:46:02.260Z,2.30
2018-07-10T00:47:02.438Z,2.60
2018-07-10T00:48:02.419Z,2.30
2018-07-10T00:49:02.438Z,2.20
2018-07-10T00:50:02.790Z,2.10
2018-07-10T00:51:01.803Z,2.10
2018-07-10T00:52:02.198Z,2.10
2018-07-10T00:53:02.214Z,2.00
2018-07-10T00:54:02.184Z,2.20
2018-07-10T00:55:01.728Z,1.90
2018-07-10T00:56:01.991Z,2.00
2018-07-10T00:57:02.518Z,1.90
2018-07-10T00:59:01.921Z,2.40
2018-07-10T01:00:04.047Z,2.00
2018-07-10T01:01:02.455Z,2.20
2018-07-10T01:02:02.518Z,2.30
2018-07-10T01:03:02.451Z,2.00
2018-07-10T01:04:02.440Z,2.60
2018-07-10T01:05:02.442Z,2.20
2018-07-10T01:06:02.421Z,2.00
2018-07-10T01:07:02.784Z,1.90
2018-07-10T01:08:01.725Z,1.90
2018-07-10T01:09:02.282Z,2.00
2018-07-10T01:10:01.971Z,1.90
2018-07-10T01:11:02.241Z,2.20
2018-07-10T01:12:02.210Z,2.10
2018-07-10T01:13:01.720Z,2.30
2018-07-10T01:14:02.441Z,2.10
2018-07-10T01:15:02.324Z,2.20
2018-07-10T01:16:02.284Z,2.20
2018-07-10T01:17:02.239Z,2.20
2018-07-10T01:18:02.247Z,2.00
2018-07-10T01:19:02.311Z,2.50
2018-07-10T01:20:02.223Z,2.20
2018-07-10T01:21:02.476Z,2.20
2018-07-10T01:22:02.268Z,2.00
2018-07-10T01:23:02.229Z,2.40
2018-07-10T01:24:02.573Z,2.40
2018-07-10T01:25:02.228Z,2.30
2018-07-10T01:26:02.266Z,2.10
2018-07-10T01:27:02.243Z,2.40
2018-07-10T01:28:02.207Z,2.40
2018-07-10T01:29:02.244Z,1.90
2018-07-10T01:30:02.191Z,2.10
2018-07-10T01:31:01.636Z,2.20
2018-07-10T01:32:02.231Z,2.30
2018-07-10T01:33:02.213Z,2.70
2018-07-10T01:34:02.473Z,2.30
2018-07-10T01:35:02.190Z,2.20
2018-07-10T01:36:02.475Z,2.30
2018-07-10T01:37:02.241Z,2.30
2018-07-10T01:38:02.469Z,2.30
2018-07-10T01:39:02.181Z,2.30
2018-07-10T01:40:02.259Z,2.70
2018-07-10T01:41:02.229Z,2.30
2018-07-10T01:42:02.234Z,2.10
2018-07-10T01:43:02.268Z,2.10
2018-07-10T01:44:02.251Z,2.20
2018-07-10T01:45:02.273Z,2.10
2018-07-10T01:46:02.186Z,2.50
2018-07-10T01:47:02.260Z,2.80
2018-07-10T01:48:04.025Z,2.70
2018-07-10T01:49:02.286Z,2.80
2018-07-10T01:50:02.172Z,2.20
2018-07-10T01:51:01.686Z,2.10
2018-07-10T01:52:02.191Z,2.30
2018-07-10T01:53:02.245Z,2.50
2018-07-10T01:54:02.260Z,2.20
2018-07-10T01:55:02.202Z,2.40
2018-07-10T01:56:02.253Z,2.20
2018-07-10T01:57:02.193Z,2.20
2018-07-10T01:58:02.282Z,2.40
2018-07-10T01:59:02.215Z,2.10
2018-07-10T02:01:02.201Z,2.10
2018-07-10T02:02:02.230Z,2.20
2018-07-10T02:03:02.478Z,2.40
2018-07-10T02:04:02.479Z,2.10
2018-07-10T02:05:02.471Z,2.10
2018-07-10T02:06:02.478Z,2.10
2018-07-10T02:07:02.251Z,2.00
2018-07-10T02:08:02.272Z,2.40
2018-07-10T02:09:02.283Z,2.30
2018-07-10T02:10:02.268Z,2.40
2018-07-10T02:11:02.269Z,2.30
2018-07-10T02:12:02.434Z,2.20
2018-07-10T02:13:02.442Z,2.40
2018-07-10T02:14:02.547Z,2.20
2018-07-10T02:15:04.017Z,2.30
2018-07-10T02:16:02.436Z,1.80
2018-07-10T02:17:01.936Z,2.40
2018-07-10T02:18:02.438Z,2.20
2018-07-10T02:19:02.437Z,2.10
2018-07-10T02:20:02.229Z,2.00
2018-07-10T02:21:02.481Z,2.30
2018-07-10T02:22:02.259Z,2.00
2018-07-10T02:23:02.238Z,2.20
2018-07-10T02:24:02.260Z,1.80
2018-07-10T02:25:02.239Z,2.30
2018-07-10T02:26:02.296Z,2.50
2018-07-10T02:27:02.215Z,2.10
2018-07-10T02:28:02.237Z,2.10
2018-07-10T02:29:02.188Z,1.80
2018-07-10T02:30:02.239Z,2.30
2018-07-10T02:31:02.267Z,2.00
2018-07-10T02:32:02.254Z,2.10
2018-07-10T02:33:02.279Z,2.30
2018-07-10T02:34:02.255Z,2.10
2018-07-10T02:35:02.240Z,1.90
2018-07-10T02:36:02.249Z,1.80
2018-07-10T02:37:04.080Z,1.90
2018-07-10T02:38:02.230Z,2.30
2018-07-10T02:39:02.315Z,2.10
2018-07-10T02:40:02.260Z,1.70
2018-07-10T02:41:02.240Z,1.90
2018-07-10T02:42:04.488Z,1.90
2018-07-10T02:43:02.214Z,2.20
2018-07-10T02:44:02.249Z,2.10
2018-07-10T02:45:02.280Z,2.00
2018-07-10T02:46:01.910Z,2.10
2018-07-10T02:47:01.963Z,2.10
2018-07-10T02:48:02.000Z,1.90
2018-07-10T02:49:01.924Z,2.10
2018-07-10T02:50:01.942Z,1.80
2018-07-10T02:51:01.942Z,2.00
2018-07-10T02:52:01.997Z,2.00
2018-07-10T02:53:01.869Z,2.00
2018-07-10T02:54:01.928Z,2.00
2018-07-10T02:55:01.895Z,2.30
2018-07-10T02:56:02.027Z,2.00
2018-07-10T02:57:01.985Z,2.00
2018-07-10T02:58:01.997Z,2.20
2018-07-10T02:59:01.965Z,2.10
2018-07-10T03:00:01.960Z,2.10
2018-07-10T03:01:01.941Z,2.10
2018-07-10T03:02:02.002Z,1.90
2018-07-10T03:03:01.962Z,2.20
2018-07-10T03:04:02.016Z,2.50
2018-07-10T03:05:02.133Z,2.00
2018-07-10T03:06:02.049Z,2.00
2018-07-10T03:07:02.062Z,1.90
2018-07-10T03:08:02.100Z,2.00
2018-07-10T03:09:01.908Z,1.80
2018-07-10T03:10:01.928Z,2.00
2018-07-10T03:11:01.940Z,1.80
2018-07-10T03:12:01.813Z,2.00
2018-07-10T03:13:01.928Z,2.10
2018-07-10T03:14:01.879Z,1.90
2018-07-10T03:15:01.851Z,2.20
2018-07-10T03:16:02.002Z,2.10
2018-07-10T03:17:01.928Z,2.00
2018-07-10T03:18:01.876Z,2.10
2018-07-10T03:19:01.898Z,2.10
2018-07-10T03:20:01.971Z,2.60
2018-07-10T03:21:01.925Z,2.10
2018-07-10T03:22:02.018Z,2.40
2018-07-10T03:23:01.852Z,2.10
2018-07-10T03:24:01.853Z,2.00
2018-07-10T03:25:03.607Z,2.20
2018-07-10T03:26:01.932Z,2.10
2018-07-10T03:27:01.860Z,1.90
2018-07-10T03:28:01.867Z,1.90
2018-07-10T03:29:03.712Z,2.30
2018-07-10T03:30:01.955Z,1.80
2018-07-10T03:31:01.868Z,2.00
2018-07-10T03:32:01.970Z,2.20
2018-07-10T03:33:02.006Z,2.10
2018-07-10T03:34:01.928Z,2.00
2018-07-10T03:35:01.872Z,2.20
2018-07-10T03:36:01.795Z,2.00
2018-07-10T03:37:01.786Z,2.00
2018-07-10T03:38:01.778Z,2.00
2018-07-10T03:39:01.783Z,2.20
2018-07-10T03:40:03.525Z,2.10
2018-07-10T03:41:01.830Z,2.50
2018-07-10T03:42:01.878Z,2.00
2018-07-10T03:43:02.301Z,2.40
2018-07-10T03:44:01.935Z,2.20
2018-07-10T03:45:01.853Z,2.20
2018-07-10T03:46:01.772Z,2.30
2018-07-10T03:47:01.964Z,2.30
2018-07-10T03:48:01.855Z,2.00
2018-07-10T03:49:03.611Z,2.10
2018-07-10T03:50:02.472Z,2.00
2018-07-10T03:51:01.909Z,2.50
2018-07-10T03:52:01.912Z,2.10
2018-07-10T03:53:01.826Z,2.10
2018-07-10T03:54:01.699Z,2.20
2018-07-10T03:55:01.893Z,2.30
2018-07-10T03:56:01.914Z,2.00
2018-07-10T03:58:01.892Z,2.00
2018-07-10T03:59:02.011Z,2.30
2018-07-10T04:00:01.997Z,2.50
2018-07-10T04:01:01.965Z,1.90
2018-07-10T04:02:01.954Z,2.40
2018-07-10T04:03:01.855Z,2.60
2018-07-10T04:04:01.832Z,2.20
2018-07-10T04:05:01.989Z,2.40
2018-07-10T04:06:01.847Z,2.00
2018-07-10T04:07:01.844Z,2.10
2018-07-10T04:08:01.788Z,2.00
2018-07-10T04:09:01.814Z,2.20
2018-07-10T04:10:01.880Z,2.20
2018-07-10T04:11:01.810Z,2.30
2018-07-10T04:12:01.887Z,2.50
2018-07-10T04:13:01.836Z,2.10
2018-07-10T04:14:01.972Z,2.00
2018-07-10T04:15:01.789Z,2.10
2018-07-10T04:16:01.750Z,2.10
2018-07-10T04:17:03.617Z,2.40
2018-07-10T04:18:01.934Z,2.10
2018-07-10T04:19:01.791Z,2.30
2018-07-10T04:20:01.850Z,2.20
2018-07-10T04:21:01.896Z,2.40
2018-07-10T04:23:01.807Z,2.50
2018-07-10T04:24:01.922Z,2.40
2018-07-10T04:25:01.855Z,2.00
2018-07-10T04:26:01.929Z,2.30
2018-07-10T04:27:01.791Z,2.50
2018-07-10T04:28:01.791Z,2.20
2018-07-10T04:29:02.041Z,2.10
2018-07-10T04:30:01.849Z,2.00
2018-07-10T04:31:01.571Z,2.10
2018-07-10T04:32:01.982Z,2.20
2018-07-10T04:33:01.463Z,1.70
2018-07-10T04:34:02.419Z,1.90
2018-07-10T04:35:01.435Z,1.90
2018-07-10T04:36:02.074Z,2.30
2018-07-10T04:37:02.022Z,2.20
2018-07-10T04:38:02.301Z,2.10
2018-07-10T04:39:02.525Z,1.90
2018-07-10T04:40:02.062Z,2.40
2018-07-10T04:41:02.110Z,2.20
2018-07-10T04:42:01.996Z,2.20
2018-07-10T04:43:02.060Z,2.50
2018-07-10T04:44:01.852Z,2.10
2018-07-10T04:45:02.703Z,2.10
2018-07-10T04:46:01.772Z,2.30
2018-07-10T04:47:02.146Z,1.90
2018-07-10T04:48:02.343Z,2.00
2018-07-10T04:49:02.032Z,2.10
2018-07-10T04:50:01.984Z,2.10
2018-07-10T04:51:01.783Z,2.40
2018-07-10T04:52:01.483Z,2.10
2018-07-10T04:53:02.066Z,2.10
2018-07-10T04:54:02.083Z,2.00
2018-07-10T04:55:02.077Z,2.00
2018-07-10T04:56:02.073Z,2.10
2018-07-10T04:57:01.487Z,2.50
2018-07-10T04:58:02.047Z,2.40
2018-07-10T04:59:01.979Z,2.20
2018-07-10T05:00:01.981Z,2.40
2018-07-10T05:01:02.093Z,2.70
2018-07-10T05:02:01.740Z,2.40
2018-07-10T05:03:02.283Z,2.00
2018-07-10T05:04:01.486Z,2.10
2018-07-10T05:05:01.857Z,2.20
2018-07-10T05:06:01.698Z,2.00
2018-07-10T05:07:01.771Z,2.30
2018-07-10T05:08:02.037Z,2.20
2018-07-10T05:09:01.784Z,2.30
2018-07-10T05:10:02.042Z,2.10
2018-07-10T05:11:01.502Z,2.50
2018-07-10T05:12:02.212Z,2.50
2018-07-10T05:13:01.774Z,2.30
2018-07-10T05:14:03.585Z,2.80
2018-07-10T05:15:01.391Z,2.40
2018-07-10T05:16:02.009Z,2.20
2018-07-10T05:17:01.891Z,2.60
2018-07-10T05:18:02.099Z,2.30
2018-07-10T05:19:01.762Z,2.40
2018-07-10T05:20:02.088Z,2.30
2018-07-10T05:21:01.423Z,2.30
2018-07-10T05:22:03.944Z,2.20
2018-07-10T05:23:01.826Z,2.10
2018-07-10T05:24:02.067Z,2.10
2018-07-10T05:25:01.813Z,2.00
2018-07-10T05:26:01.845Z,2.00
2018-07-10T05:27:01.491Z,2.30
2018-07-10T05:28:02.033Z,2.10
2018-07-10T05:29:01.958Z,2.30
2018-07-10T05:30:02.349Z,2.30
2018-07-10T05:31:03.922Z,2.20
2018-07-10T05:32:01.498Z,2.40
2018-07-10T05:33:01.753Z,2.10
2018-07-10T05:34:02.048Z,2.20
2018-07-10T05:35:01.899Z,2.50
2018-07-10T05:36:02.318Z,2.40
2018-07-10T05:37:02.000Z,2.30
2018-07-10T05:38:01.996Z,2.10
2018-07-10T05:39:02.045Z,2.10
2018-07-10T05:40:04.470Z,2.10
2018-07-10T05:41:02.052Z,1.80
2018-07-10T05:42:01.937Z,2.50
2018-07-10T05:43:01.566Z,2.30
2018-07-10T05:44:01.797Z,2.10
2018-07-10T05:45:02.000Z,2.10
2018-07-10T05:46:02.066Z,2.30
2018-07-10T05:47:02.001Z,2.00
2018-07-10T05:48:01.998Z,2.10
2018-07-10T05:49:02.053Z,2.40
2018-07-10T05:50:02.050Z,2.30
2018-07-10T05:51:02.492Z,2.30
2018-07-10T05:52:02.181Z,2.50
2018-07-10T05:53:02.369Z,2.40
2018-07-10T05:54:04.048Z,2.10
2018-07-10T05:55:02.067Z,2.10
2018-07-10T05:56:01.933Z,2.30
2018-07-10T05:57:02.085Z,2.20
2018-07-10T05:58:01.845Z,2.10
2018-07-10T05:59:01.880Z,2.20
2018-07-10T06:00:02.364Z,2.20
2018-07-10T06:01:01.812Z,2.10
2018-07-10T06:02:02.378Z,2.10
2018-07-10T06:03:02.063Z,2.30
2018-07-10T06:04:02.090Z,2.30
2018-07-10T06:05:01.877Z,2.00
2018-07-10T06:06:01.865Z,2.50
2018-07-10T06:07:02.465Z,2.10
2018-07-10T06:08:02.424Z,2.30
2018-07-10T06:09:02.057Z,2.10
2018-07-10T06:10:02.103Z,2.10
2018-07-10T06:11:01.934Z,1.80
2018-07-10T06:12:01.808Z,2.20
2018-07-10T06:13:01.788Z,2.20
2018-07-10T06:14:02.541Z,2.20
2018-07-10T06:15:02.083Z,2.00
2018-07-10T06:16:01.797Z,2.30
2018-07-10T06:17:01.550Z,1.90
2018-07-10T06:18:01.865Z,2.20
2018-07-10T06:19:01.767Z,2.00
2018-07-10T06:20:01.796Z,2.00
2018-07-10T06:21:02.046Z,2.30
2018-07-10T06:22:01.813Z,1.90
2018-07-10T06:23:02.329Z,2.00
2018-07-10T06:24:02.464Z,2.00
2018-07-10T06:25:01.511Z,2.30
2018-07-10T06:26:02.100Z,2.10
2018-07-10T06:27:03.959Z,2.00
2018-07-10T06:28:02.460Z,2.10
2018-07-10T06:29:01.808Z,1.80
2018-07-10T06:30:01.796Z,1.80
2018-07-10T06:31:01.785Z,2.10
2018-07-10T06:32:01.827Z,2.20
2018-07-10T06:33:01.289Z,2.40
2018-07-10T06:34:01.855Z,2.20
2018-07-10T06:35:01.180Z,1.90
2018-07-10T06:36:02.054Z,2.60
2018-07-10T06:37:01.847Z,2.20
2018-07-10T06:38:01.826Z,2.60
2018-07-10T06:39:01.796Z,2.20
2018-07-10T06:40:02.055Z,2.30
2018-07-10T06:41:02.027Z,2.50
2018-07-10T06:42:02.054Z,2.40
2018-07-10T06:43:01.800Z,2.60
2018-07-10T06:44:01.840Z,2.10
2018-07-10T06:45:02.060Z,2.10
2018-07-10T06:46:02.051Z,2.20
2018-07-10T06:47:01.841Z,2.10
2018-07-10T06:48:02.074Z,2.60
2018-07-10T06:49:02.090Z,2.60
2018-07-10T06:50:01.851Z,2.70
2018-07-10T06:51:02.098Z,2.60
2018-07-10T06:52:01.798Z,2.50
2018-07-10T06:53:01.493Z,2.70
2018-07-10T06:54:01.789Z,2.60
2018-07-10T06:55:01.780Z,2.60
2018-07-10T06:56:02.093Z,2.40
2018-07-10T06:57:01.835Z,2.40
2018-07-10T06:58:02.382Z,2.40
2018-07-10T06:59:02.416Z,2.70
2018-07-10T07:00:02.017Z,3.10
2018-07-10T07:01:02.379Z,2.40
2018-07-10T07:02:03.566Z,2.90
2018-07-10T07:03:02.085Z,2.40
2018-07-10T07:04:01.258Z,2.60
2018-07-10T07:05:02.376Z,2.80
2018-07-10T07:06:02.061Z,2.70
2018-07-10T07:07:02.378Z,2.70
2018-07-10T07:08:01.703Z,2.80
2018-07-10T07:09:02.375Z,2.40
2018-07-10T07:10:01.622Z,2.90
2018-07-10T07:11:01.866Z,2.80
2018-07-10T07:12:02.388Z,2.70
2018-07-10T07:13:01.549Z,2.90
2018-07-10T07:14:02.099Z,2.70
2018-07-10T07:15:01.848Z,2.70
2018-07-10T07:16:02.136Z,2.70
2018-07-10T07:17:01.881Z,2.80
2018-07-10T07:18:02.068Z,3.00
2018-07-10T07:19:01.598Z,2.70
2018-07-10T07:20:01.565Z,2.70
2018-07-10T07:21:01.604Z,2.70
2018-07-10T07:22:01.564Z,2.90
2018-07-10T07:23:02.072Z,3.00
2018-07-10T07:24:01.569Z,2.50
2018-07-10T07:25:01.829Z,3.10
2018-07-10T07:26:01.918Z,2.90
2018-07-10T07:27:03.618Z,2.60
2018-07-10T07:28:04.579Z,2.60
2018-07-10T07:29:01.299Z,3.10
2018-07-10T07:30:04.067Z,3.00
2018-07-10T07:31:01.324Z,2.90
2018-07-10T07:32:01.577Z,3.00
2018-07-10T07:33:01.621Z,2.90
2018-07-10T07:34:01.782Z,3.30
2018-07-10T07:35:01.731Z,2.90
2018-07-10T07:36:01.717Z,2.80
2018-07-10T07:37:01.665Z,2.90
2018-07-10T07:38:02.035Z,3.20
2018-07-10T07:39:02.072Z,3.10
2018-07-10T07:40:01.627Z,3.10
2018-07-10T07:41:02.027Z,3.30
2018-07-10T07:42:02.167Z,3.00
2018-07-10T07:43:02.067Z,3.10
2018-07-10T07:44:01.674Z,3.10
2018-07-10T07:45:03.899Z,3.20
2018-07-10T07:46:01.590Z,3.40
2018-07-10T07:47:01.548Z,3.10
2018-07-10T07:48:01.808Z,3.20
2018-07-10T07:49:01.573Z,3.40
2018-07-10T07:50:01.837Z,3.20
2018-07-10T07:51:02.154Z,3.50
2018-07-10T07:52:01.392Z,3.30
2018-07-10T07:53:01.569Z,3.40
2018-07-10T07:54:01.857Z,3.40
2018-07-10T07:55:03.457Z,3.80
2018-07-10T07:56:01.155Z,3.60
2018-07-10T07:57:01.509Z,3.20
2018-07-10T07:58:01.609Z,3.10
2018-07-10T07:59:01.518Z,3.20
2018-07-10T08:00:01.630Z,3.90
2018-07-10T08:01:01.536Z,3.20
2018-07-10T08:02:01.356Z,3.50
2018-07-10T08:03:02.035Z,3.20
2018-07-10T08:04:01.538Z,3.30
2018-07-10T08:05:02.035Z,3.60
2018-07-10T08:06:01.503Z,3.50
2018-07-10T08:07:01.622Z,3.50
2018-07-10T08:08:01.540Z,3.20
2018-07-10T08:09:01.659Z,2.90
2018-07-10T08:10:01.527Z,3.30
2018-07-10T08:11:01.537Z,3.20
2018-07-10T08:12:01.748Z,3.50
2018-07-10T08:13:01.623Z,3.20
2018-07-10T08:14:01.535Z,3.60
2018-07-10T08:15:01.582Z,3.40
2018-07-10T08:16:01.547Z,4.00
2018-07-10T08:17:01.588Z,3.50
2018-07-10T08:18:01.581Z,3.30
2018-07-10T08:19:01.533Z,3.30
2018-07-10T08:20:01.832Z,3.10
2018-07-10T08:21:01.260Z,3.20
2018-07-10T08:22:01.644Z,3.40
2018-07-10T08:23:02.461Z,3.40
2018-07-10T08:24:01.540Z,3.30
2018-07-10T08:25:01.588Z,3.70
2018-07-10T08:26:04.046Z,3.60
2018-07-10T08:27:01.557Z,3.50
2018-07-10T08:28:01.686Z,3.50
2018-07-10T08:29:01.553Z,3.70
2018-07-10T08:30:03.578Z,3.60
2018-07-10T08:31:02.067Z,3.70
2018-07-10T08:32:01.883Z,3.50
2018-07-10T08:33:01.562Z,3.90
2018-07-10T08:34:01.805Z,3.60
2018-07-10T08:35:03.539Z,3.40
2018-07-10T08:36:01.549Z,3.80
2018-07-10T08:37:01.401Z,3.60
2018-07-10T08:38:01.551Z,3.60
2018-07-10T08:39:01.540Z,4.10
2018-07-10T08:40:01.565Z,3.90
2018-07-10T08:41:03.548Z,4.30
2018-07-10T08:42:01.540Z,4.40
2018-07-10T08:43:01.426Z,4.30
2018-07-10T08:44:01.544Z,4.00
2018-07-10T08:45:01.546Z,4.00
2018-07-10T08:46:01.548Z,4.10
2018-07-10T08:47:01.440Z,4.30
2018-07-10T08:48:01.543Z,4.60
2018-07-10T08:49:01.650Z,4.00
2018-07-10T08:50:01.698Z,4.30
2018-07-10T08:51:01.602Z,4.10
2018-07-10T08:52:01.551Z,4.30
2018-07-10T08:53:01.561Z,4.60
2018-07-10T08:54:01.403Z,4.70
2018-07-10T08:55:02.043Z,4.50
2018-07-10T08:56:01.553Z,4.40
2018-07-10T08:57:01.701Z,4.60
2018-07-10T08:58:01.615Z,4.30
2018-07-10T08:59:03.451Z,4.40
2018-07-10T09:00:01.552Z,4.20
2018-07-10T09:01:01.542Z,4.60
2018-07-10T09:02:03.550Z,4.70
2018-07-10T09:03:01.554Z,4.60
2018-07-10T09:04:01.614Z,4.40
2018-07-10T09:05:01.570Z,4.50
2018-07-10T09:06:03.559Z,4.40
2018-07-10T09:07:01.766Z,4.40
2018-07-10T09:08:01.481Z,4.60
2018-07-10T09:09:01.551Z,4.50
2018-07-10T09:10:01.559Z,4.70
2018-07-10T09:11:01.549Z,4.30
2018-07-10T09:12:01.490Z,4.60
2018-07-10T09:13:01.051Z,4.70
2018-07-10T09:14:01.385Z,4.80
2018-07-10T09:15:01.754Z,4.40
2018-07-10T09:16:02.819Z,4.50
2018-07-10T09:17:01.629Z,4.40
2018-07-10T09:18:01.405Z,4.50
2018-07-10T09:19:01.460Z,4.20
2018-07-10T09:20:01.958Z,4.50
2018-07-10T09:21:02.045Z,4.70
2018-07-10T09:22:01.544Z,5.00
2018-07-10T09:23:01.562Z,4.50
2018-07-10T09:24:01.554Z,4.60
2018-07-10T09:25:01.564Z,4.80
2018-07-10T09:26:01.602Z,4.50
2018-07-10T09:27:01.556Z,4.90
2018-07-10T09:28:01.559Z,4.60
2018-07-10T09:29:01.560Z,4.80
2018-07-10T09:30:01.559Z,4.30
2018-07-10T09:31:01.558Z,4.50
2018-07-10T09:32:01.554Z,4.60
2018-07-10T09:33:01.572Z,4.80
2018-07-10T09:34:01.470Z,4.90
2018-07-10T09:35:01.559Z,4.80
2018-07-10T09:36:01.563Z,4.90
2018-07-10T09:37:01.393Z,4.80
2018-07-10T09:38:01.060Z,4.80
2018-07-10T09:39:01.614Z,4.70
2018-07-10T09:40:01.641Z,4.40
2018-07-10T09:41:01.578Z,4.30
2018-07-10T09:42:01.388Z,4.30
2018-07-10T09:43:01.555Z,4.40
2018-07-10T09:44:01.666Z,4.40
2018-07-10T09:45:01.556Z,4.40
2018-07-10T09:46:01.559Z,4.70
2018-07-10T09:47:01.617Z,4.90
2018-07-10T09:48:01.422Z,4.40
2018-07-10T09:49:01.560Z,4.30
2018-07-10T09:50:01.562Z,4.20
2018-07-10T09:51:01.483Z,4.40
2018-07-10T09:52:01.443Z,4.70
2018-07-10T09:53:01.462Z,4.60
2018-07-10T09:54:03.353Z,4.50
2018-07-10T09:55:01.570Z,4.30
2018-07-10T09:56:01.568Z,4.50
2018-07-10T09:57:01.622Z,4.70
2018-07-10T09:58:03.750Z,4.40
2018-07-10T09:59:01.562Z,4.90
2018-07-10T10:00:01.564Z,4.70
2018-07-10T10:01:01.681Z,4.80
2018-07-10T10:02:01.633Z,4.60
2018-07-10T10:03:01.084Z,4.80
2018-07-10T10:04:01.634Z,5.20
2018-07-10T10:05:01.431Z,4.80
2018-07-10T10:06:01.570Z,4.90
2018-07-10T10:07:01.371Z,4.90
2018-07-10T10:08:01.392Z,4.80
2018-07-10T10:09:01.566Z,4.90
2018-07-10T10:10:01.403Z,5.60
2018-07-10T10:11:01.566Z,5.20
2018-07-10T10:12:01.416Z,5.20
2018-07-10T10:13:01.441Z,5.20
2018-07-10T10:14:01.603Z,5.30
2018-07-10T10:15:03.265Z,5.20
2018-07-10T10:16:01.574Z,5.30
2018-07-10T10:17:01.416Z,5.20
2018-07-10T10:18:01.112Z,5.20
2018-07-10T10:19:01.571Z,5.00
2018-07-10T10:20:01.569Z,5.10
2018-07-10T10:21:01.749Z,5.50
2018-07-10T10:22:01.590Z,5.20
2018-07-10T10:23:01.565Z,5.20
2018-07-10T10:24:01.540Z,4.70
2018-07-10T10:25:01.574Z,5.40
2018-07-10T10:26:01.574Z,5.00
2018-07-10T10:27:01.483Z,5.10
2018-07-10T10:28:01.574Z,4.70
2018-07-10T10:29:01.356Z,5.10
2018-07-10T10:30:01.561Z,5.30
2018-07-10T10:31:01.590Z,4.80
2018-07-10T10:32:01.073Z,4.80
2018-07-10T10:33:01.570Z,5.50
2018-07-10T10:34:01.577Z,4.90
2018-07-10T10:35:01.360Z,5.20
2018-07-10T10:36:01.486Z,5.30
2018-07-10T10:37:01.234Z,5.50
2018-07-10T10:38:01.465Z,5.20
2018-07-10T10:39:01.870Z,5.50
2018-07-10T10:40:01.125Z,5.70
2018-07-10T10:41:01.581Z,5.20
2018-07-10T10:42:01.601Z,5.70
2018-07-10T10:43:01.577Z,5.20
2018-07-10T10:44:03.408Z,5.30
2018-07-10T10:45:03.193Z,5.40
2018-07-10T10:46:01.073Z,5.00
2018-07-10T10:47:01.795Z,6.00
2018-07-10T10:48:01.703Z,5.40
2018-07-10T10:49:02.079Z,5.30
2018-07-10T10:50:01.574Z,5.90
2018-07-10T10:51:01.848Z,5.80
2018-07-10T10:52:01.573Z,5.80
2018-07-10T10:53:01.538Z,5.50
2018-07-10T10:54:01.682Z,5.40
2018-07-10T10:55:01.602Z,5.20
2018-07-10T10:56:01.577Z,5.70
2018-07-10T10:57:01.580Z,5.90
2018-07-10T10:58:03.580Z,5.70
2018-07-10T10:59:03.700Z,5.80
2018-07-10T11:00:01.624Z,5.10
2018-07-10T11:01:01.450Z,4.90
2018-07-10T11:02:01.610Z,5.90
2018-07-10T11:03:01.085Z,5.70
2018-07-10T11:04:01.676Z,5.80
2018-07-10T11:05:01.392Z,5.80
2018-07-10T11:06:01.638Z,6.30
2018-07-10T11:07:01.384Z,6.10
2018-07-10T11:08:01.419Z,6.50
2018-07-10T11:09:01.428Z,6.40
2018-07-10T11:10:01.447Z,6.10
2018-07-10T11:11:01.482Z,6.10
2018-07-10T11:12:01.587Z,6.30
2018-07-10T11:13:01.639Z,6.10
2018-07-10T11:14:01.423Z,6.60
2018-07-10T11:15:01.377Z,6.30
2018-07-10T11:16:01.592Z,6.30
2018-07-10T11:17:03.581Z,6.60
2018-07-10T11:18:01.506Z,5.80
2018-07-10T11:19:01.520Z,6.30
2018-07-10T11:20:01.605Z,6.60
2018-07-10T11:21:01.401Z,5.90
2018-07-10T11:22:01.583Z,6.20
2018-07-10T11:23:02.033Z,6.10
2018-07-10T11:24:01.590Z,6.90
2018-07-10T11:25:03.287Z,6.40
2018-07-10T11:26:01.609Z,6.10
2018-07-10T11:27:01.641Z,6.20
2018-07-10T11:28:01.461Z,6.40
2018-07-10T11:29:01.594Z,6.70
2018-07-10T11:30:01.797Z,6.30
2018-07-10T11:31:01.594Z,6.90
2018-07-10T11:32:01.613Z,7.00
2018-07-10T11:33:00.919Z,6.20
2018-07-10T11:34:01.587Z,6.50
2018-07-10T11:35:03.252Z,6.80
2018-07-10T11:36:01.593Z,6.90
2018-07-10T11:37:01.431Z,7.20
2018-07-10T11:38:01.417Z,6.70
2018-07-10T11:39:01.467Z,6.70
2018-07-10T11:40:01.657Z,7.10
2018-07-10T11:41:01.589Z,6.60
2018-07-10T11:42:01.448Z,7.00
2018-07-10T11:43:03.444Z,6.60
2018-07-10T11:44:01.255Z,6.70
2018-07-10T11:45:01.231Z,6.50
2018-07-10T11:46:01.144Z,7.30
2018-07-10T11:47:01.158Z,7.30
2018-07-10T11:48:01.133Z,7.00
2018-07-10T11:49:01.188Z,7.30
2018-07-10T11:50:01.135Z,7.40
2018-07-10T11:51:03.096Z,6.80
2018-07-10T11:52:02.987Z,6.80
2018-07-10T11:53:01.597Z,7.20
2018-07-10T11:54:03.103Z,7.00
2018-07-10T11:55:01.580Z,7.60
2018-07-10T11:56:01.189Z,7.90
2018-07-10T11:57:03.902Z,7.40
2018-07-10T11:58:03.096Z,7.30
2018-07-10T11:59:01.274Z,8.40
2018-07-10T12:00:01.147Z,8.20
2018-07-10T12:01:01.603Z,7.20
2018-07-10T12:02:03.308Z,8.30
2018-07-10T12:03:03.100Z,8.70
2018-07-10T12:04:02.960Z,7.80
2018-07-10T12:05:00.770Z,7.80
2018-07-10T12:06:01.328Z,8.00
2018-07-10T12:07:01.023Z,8.30
2018-07-10T12:08:03.292Z,8.40
2018-07-10T12:09:01.175Z,8.30
2018-07-10T12:10:01.116Z,7.70
2018-07-10T12:11:01.099Z,8.40
2018-07-10T12:12:01.157Z,8.00
2018-07-10T12:13:02.926Z,8.10
2018-07-10T12:14:01.605Z,7.70
2018-07-10T12:15:01.227Z,8.40
2018-07-10T12:16:01.233Z,7.70
2018-07-10T12:17:03.124Z,8.40
2018-07-10T12:18:03.105Z,7.80
2018-07-10T12:19:03.464Z,8.40
2018-07-10T12:20:01.140Z,8.20
2018-07-10T12:21:01.107Z,8.20
2018-07-10T12:22:04.003Z,7.90
2018-07-10T12:23:01.214Z,7.80
2018-07-10T12:24:01.168Z,7.10
2018-07-10T12:25:03.113Z,7.60
2018-07-10T12:26:01.158Z,7.20
2018-07-10T12:27:03.104Z,7.90
2018-07-10T12:28:01.115Z,8.20
2018-07-10T12:29:01.179Z,7.90
2018-07-10T12:30:01.608Z,7.40
2018-07-10T12:31:03.109Z,7.90
2018-07-10T12:32:01.171Z,7.90
2018-07-10T12:33:03.161Z,7.50
2018-07-10T12:34:01.114Z,7.40
2018-07-10T12:35:01.135Z,7.50
2018-07-10T12:36:02.948Z,7.80
2018-07-10T12:37:01.032Z,7.60
2018-07-10T12:38:01.257Z,6.90
2018-07-10T12:39:01.107Z,8.10
2018-07-10T12:40:01.125Z,7.20
2018-07-10T12:41:01.107Z,6.20
2018-07-10T12:42:02.995Z,5.70
2018-07-10T12:43:01.186Z,6.70
2018-07-10T12:44:00.773Z,6.80
2018-07-10T12:45:01.109Z,6.70
2018-07-10T12:46:01.473Z,6.90
2018-07-10T12:47:01.243Z,6.50
2018-07-10T12:48:01.140Z,7.10
2018-07-10T12:49:01.247Z,7.20
2018-07-10T12:50:01.619Z,6.80
2018-07-10T12:51:03.116Z,7.20
2018-07-10T12:52:01.297Z,6.50
2018-07-10T12:53:00.785Z,7.40
2018-07-10T12:54:03.197Z,7.30
2018-07-10T12:55:03.091Z,6.90
2018-07-10T12:56:01.618Z,7.60
2018-07-10T12:57:01.432Z,7.00
2018-07-10T12:58:01.271Z,6.60
2018-07-10T12:58:59.686Z,7.70
2018-07-10T13:01:01.191Z,5.90
2018-07-10T13:02:03.032Z,6.90
2018-07-10T13:03:03.047Z,6.90
2018-07-10T13:04:01.125Z,6.70
2018-07-10T13:05:01.122Z,6.80
2018-07-10T13:06:01.517Z,7.20
2018-07-10T13:07:01.391Z,6.90
2018-07-10T13:08:01.204Z,6.80
2018-07-10T13:09:01.181Z,7.20
2018-07-10T13:10:01.178Z,8.00
2018-07-10T13:11:01.498Z,7.80
2018-07-10T13:12:03.353Z,7.70
2018-07-10T13:13:03.148Z,7.80
2018-07-10T13:14:03.007Z,8.20
2018-07-10T13:15:03.417Z,8.40
2018-07-10T13:16:01.237Z,8.10
2018-07-10T13:17:01.629Z,8.30
2018-07-10T13:18:01.543Z,8.30
2018-07-10T13:19:01.123Z,8.10
2018-07-10T13:20:03.129Z,7.70
2018-07-10T13:21:03.127Z,7.20
2018-07-10T13:22:03.179Z,7.20
2018-07-10T13:23:03.125Z,7.00